sensor_id;sensor_type;location;lat;lon;timestamp;P1;durP1;ratioP1;P2;durP2;ratioP2
18677;SDS011;9469;51.114;13.914;2023-04-01T00:02:23;1.80;;;1.10;;
18677;SDS011;9469;51.114;13.914;2023-04-01T00:07:28;1.80;;;1.20;;
18677;SDS011;9469;51.114;13.914;2023-04-01T00:12:38;3.53;;;1.20;;
18677;SDS011;9469;51.114;13.914;2023-04-01T00:17:49;3.43;;;1.20;;
18677;SDS011;9469;51.114;13.914;2023-04-01T00:22:54;3.13;;;1.37;;
18677;SDS011;9469;51.114;13.914;2023-04-01T00:28:02;4.43;;;1.30;;
18677;SDS011;9469;51.114;13.914;2023-04-01T00:33:08;1.73;;;1.00;;
18677;SDS011;9469;51.114;13.914;2023-04-01T00:38:13;3.00;;;1.20;;
18677;SDS011;9469;51.114;13.914;2023-04-01T00:43:21;3.83;;;1.20;;
18677;SDS011;9469;51.114;13.914;2023-04-01T00:48:27;1.40;;;1.00;;
18677;SDS011;9469;51.114;13.914;2023-04-01T00:53:38;2.87;;;1.30;;
18677;SDS011;9469;51.114;13.914;2023-04-01T00:58:53;3.50;;;1.40;;
18677;SDS011;9469;51.114;13.914;2023-04-01T01:04:05;3.43;;;1.00;;
18677;SDS011;9469;51.114;13.914;2023-04-01T01:09:17;3.47;;;1.53;;
18677;SDS011;9469;51.114;13.914;2023-04-01T01:14:40;3.33;;;1.57;;
18677;SDS011;9469;51.114;13.914;2023-04-01T01:20:01;3.03;;;1.50;;
18677;SDS011;9469;51.114;13.914;2023-04-01T01:25:30;5.23;;;1.20;;
18677;SDS011;9469;51.114;13.914;2023-04-01T01:30:46;1.70;;;1.60;;
18677;SDS011;9469;51.114;13.914;2023-04-01T01:36:00;3.63;;;1.20;;
18677;SDS011;9469;51.114;13.914;2023-04-01T01:41:09;4.60;;;1.40;;
18677;SDS011;9469;51.114;13.914;2023-04-01T01:46:16;3.93;;;1.60;;
18677;SDS011;9469;51.114;13.914;2023-04-01T01:51:28;1.90;;;1.23;;
18677;SDS011;9469;51.114;13.914;2023-04-01T01:56:35;5.80;;;2.87;;
18677;SDS011;9469;51.114;13.914;2023-04-01T02:01:45;3.67;;;1.10;;
18677;SDS011;9469;51.114;13.914;2023-04-01T02:06:58;4.30;;;1.60;;
18677;SDS011;9469;51.114;13.914;2023-04-01T02:12:08;2.13;;;1.23;;
18677;SDS011;9469;51.114;13.914;2023-04-01T02:17:16;5.27;;;1.40;;
18677;SDS011;9469;51.114;13.914;2023-04-01T02:22:28;2.10;;;1.10;;
18677;SDS011;9469;51.114;13.914;2023-04-01T02:27:36;4.13;;;1.30;;
18677;SDS011;9469;51.114;13.914;2023-04-01T02:32:43;3.57;;;1.50;;
18677;SDS011;9469;51.114;13.914;2023-04-01T02:37:54;4.30;;;1.47;;
18677;SDS011;9469;51.114;13.914;2023-04-01T02:43:02;3.60;;;1.60;;
18677;SDS011;9469;51.114;13.914;2023-04-01T02:48:08;4.30;;;1.50;;
18677;SDS011;9469;51.114;13.914;2023-04-01T02:53:20;2.67;;;1.20;;
18677;SDS011;9469;51.114;13.914;2023-04-01T02:58:26;7.97;;;2.43;;
18677;SDS011;9469;51.114;13.914;2023-04-01T03:03:31;5.63;;;1.67;;
18677;SDS011;9469;51.114;13.914;2023-04-01T03:08:40;1.80;;;0.97;;
18677;SDS011;9469;51.114;13.914;2023-04-01T03:13:45;3.50;;;1.13;;
18677;SDS011;9469;51.114;13.914;2023-04-01T03:18:51;4.60;;;1.50;;
18677;SDS011;9469;51.114;13.914;2023-04-01T03:24:01;4.67;;;1.40;;
18677;SDS011;9469;51.114;13.914;2023-04-01T03:29:08;2.93;;;1.47;;
18677;SDS011;9469;51.114;13.914;2023-04-01T03:34:13;6.33;;;1.50;;
18677;SDS011;9469;51.114;13.914;2023-04-01T03:39:21;3.43;;;1.40;;
18677;SDS011;9469;51.114;13.914;2023-04-01T03:44:30;2.37;;;1.20;;
18677;SDS011;9469;51.114;13.914;2023-04-01T03:49:41;11.97;;;3.90;;
18677;SDS011;9469;51.114;13.914;2023-04-01T03:54:49;3.00;;;1.30;;
18677;SDS011;9469;51.114;13.914;2023-04-01T03:59:54;4.07;;;1.37;;
18677;SDS011;9469;51.114;13.914;2023-04-01T04:05:00;4.60;;;1.33;;
18677;SDS011;9469;51.114;13.914;2023-04-01T04:10:10;3.53;;;1.40;;
18677;SDS011;9469;51.114;13.914;2023-04-01T04:15:15;2.03;;;1.60;;
18677;SDS011;9469;51.114;13.914;2023-04-01T04:20:21;2.33;;;1.53;;
18677;SDS011;9469;51.114;13.914;2023-04-01T04:25:30;3.90;;;1.57;;
18677;SDS011;9469;51.114;13.914;2023-04-01T04:30:36;2.23;;;1.40;;
18677;SDS011;9469;51.114;13.914;2023-04-01T04:35:41;4.93;;;1.30;;
18677;SDS011;9469;51.114;13.914;2023-04-01T04:40:49;3.57;;;2.07;;
18677;SDS011;9469;51.114;13.914;2023-04-01T04:45:55;4.80;;;2.00;;
18677;SDS011;9469;51.114;13.914;2023-04-01T04:51:02;3.77;;;1.60;;
18677;SDS011;9469;51.114;13.914;2023-04-01T04:56:11;5.73;;;1.33;;
18677;SDS011;9469;51.114;13.914;2023-04-01T05:01:23;3.10;;;1.57;;
18677;SDS011;9469;51.114;13.914;2023-04-01T05:06:28;3.43;;;1.30;;
18677;SDS011;9469;51.114;13.914;2023-04-01T05:11:38;6.70;;;1.70;;
18677;SDS011;9469;51.114;13.914;2023-04-01T05:16:43;3.63;;;1.40;;
18677;SDS011;9469;51.114;13.914;2023-04-01T05:21:50;1.93;;;1.37;;
18677;SDS011;9469;51.114;13.914;2023-04-01T05:26:58;2.30;;;1.43;;
18677;SDS011;9469;51.114;13.914;2023-04-01T05:32:06;3.77;;;1.40;;
18677;SDS011;9469;51.114;13.914;2023-04-01T05:37:12;3.70;;;1.10;;
18677;SDS011;9469;51.114;13.914;2023-04-01T05:42:20;2.87;;;0.90;;
18677;SDS011;9469;51.114;13.914;2023-04-01T05:47:26;3.90;;;2.33;;
18677;SDS011;9469;51.114;13.914;2023-04-01T05:52:31;3.37;;;1.40;;
18677;SDS011;9469;51.114;13.914;2023-04-01T05:57:47;3.33;;;1.60;;
18677;SDS011;9469;51.114;13.914;2023-04-01T06:02:52;3.20;;;1.37;;
18677;SDS011;9469;51.114;13.914;2023-04-01T06:07:58;3.80;;;1.20;;
18677;SDS011;9469;51.114;13.914;2023-04-01T06:13:13;2.37;;;1.03;;
18677;SDS011;9469;51.114;13.914;2023-04-01T06:18:42;3.47;;;1.40;;
18677;SDS011;9469;51.114;13.914;2023-04-01T06:24:11;3.43;;;1.17;;
18677;SDS011;9469;51.114;13.914;2023-04-01T06:40:42;3.63;;;1.40;;
18677;SDS011;9469;51.114;13.914;2023-04-01T06:46:15;4.30;;;1.07;;
18677;SDS011;9469;51.114;13.914;2023-04-01T06:51:50;4.20;;;1.73;;
18677;SDS011;9469;51.114;13.914;2023-04-01T06:57:23;2.33;;;1.30;;
18677;SDS011;9469;51.114;13.914;2023-04-01T07:02:38;2.47;;;1.10;;
18677;SDS011;9469;51.114;13.914;2023-04-01T07:07:49;8.70;;;1.60;;
18677;SDS011;9469;51.114;13.914;2023-04-01T07:13:00;3.73;;;1.70;;
18677;SDS011;9469;51.114;13.914;2023-04-01T07:18:32;5.80;;;1.43;;
18677;SDS011;9469;51.114;13.914;2023-04-01T07:23:44;3.40;;;1.13;;
18677;SDS011;9469;51.114;13.914;2023-04-01T07:29:15;3.57;;;1.20;;
18677;SDS011;9469;51.114;13.914;2023-04-01T07:34:32;3.97;;;1.00;;
18677;SDS011;9469;51.114;13.914;2023-04-01T07:39:49;6.30;;;1.37;;
18677;SDS011;9469;51.114;13.914;2023-04-01T07:45:14;3.27;;;1.17;;
18677;SDS011;9469;51.114;13.914;2023-04-01T07:50:31;3.30;;;1.33;;
18677;SDS011;9469;51.114;13.914;2023-04-01T07:55:42;2.87;;;1.47;;
18677;SDS011;9469;51.114;13.914;2023-04-01T08:00:52;3.03;;;1.07;;
18677;SDS011;9469;51.114;13.914;2023-04-01T08:06:13;3.27;;;1.13;;
18677;SDS011;9469;51.114;13.914;2023-04-01T08:11:25;3.40;;;1.20;;
18677;SDS011;9469;51.114;13.914;2023-04-01T08:17:03;6.40;;;1.50;;
18677;SDS011;9469;51.114;13.914;2023-04-01T08:22:25;2.63;;;1.27;;
18677;SDS011;9469;51.114;13.914;2023-04-01T08:27:37;1.43;;;1.00;;
18677;SDS011;9469;51.114;13.914;2023-04-01T08:32:47;3.27;;;1.17;;
18677;SDS011;9469;51.114;13.914;2023-04-01T08:38:04;2.27;;;1.13;;
18677;SDS011;9469;51.114;13.914;2023-04-01T08:43:16;2.70;;;0.87;;
18677;SDS011;9469;51.114;13.914;2023-04-01T08:54:24;1.50;;;0.97;;
18677;SDS011;9469;51.114;13.914;2023-04-01T09:00:04;1.63;;;1.07;;
18677;SDS011;9469;51.114;13.914;2023-04-01T09:06:00;2.63;;;1.00;;
18677;SDS011;9469;51.114;13.914;2023-04-01T09:11:27;1.83;;;0.93;;
18677;SDS011;9469;51.114;13.914;2023-04-01T09:17:08;2.60;;;1.20;;
18677;SDS011;9469;51.114;13.914;2023-04-01T09:22:57;2.07;;;1.17;;
18677;SDS011;9469;51.114;13.914;2023-04-01T09:28:18;2.50;;;1.07;;
18677;SDS011;9469;51.114;13.914;2023-04-01T09:39:55;5.17;;;1.20;;
18677;SDS011;9469;51.114;13.914;2023-04-01T09:50:55;1.20;;;1.00;;
18677;SDS011;9469;51.114;13.914;2023-04-01T09:56:19;1.60;;;1.00;;
18677;SDS011;9469;51.114;13.914;2023-04-01T10:01:54;3.67;;;0.90;;
18677;SDS011;9469;51.114;13.914;2023-04-01T11:23:20;3.30;;;1.00;;
18677;SDS011;9469;51.114;13.914;2023-04-01T11:28:43;1.63;;;0.87;;
18677;SDS011;9469;51.114;13.914;2023-04-01T11:34:13;2.17;;;1.30;;
18677;SDS011;9469;51.114;13.914;2023-04-01T11:39:27;2.97;;;1.13;;
18677;SDS011;9469;51.114;13.914;2023-04-01T11:45:01;3.47;;;1.53;;
18677;SDS011;9469;51.114;13.914;2023-04-01T11:50:21;1.50;;;0.80;;
18677;SDS011;9469;51.114;13.914;2023-04-01T11:55:39;1.60;;;1.00;;
18677;SDS011;9469;51.114;13.914;2023-04-01T12:06:40;3.90;;;1.40;;
18677;SDS011;9469;51.114;13.914;2023-04-01T12:11:56;2.23;;;1.07;;
18677;SDS011;9469;51.114;13.914;2023-04-01T12:17:20;4.13;;;1.33;;
18677;SDS011;9469;51.114;13.914;2023-04-01T12:22:45;3.00;;;1.10;;
18677;SDS011;9469;51.114;13.914;2023-04-01T12:28:01;0.70;;;0.70;;
18677;SDS011;9469;51.114;13.914;2023-04-01T12:33:20;1.13;;;1.03;;
18677;SDS011;9469;51.114;13.914;2023-04-01T12:38:48;1.67;;;0.60;;
18677;SDS011;9469;51.114;13.914;2023-04-01T12:44:08;1.17;;;0.80;;
18677;SDS011;9469;51.114;13.914;2023-04-01T12:49:27;2.60;;;0.67;;
18677;SDS011;9469;51.114;13.914;2023-04-01T13:00:46;1.27;;;0.60;;
18677;SDS011;9469;51.114;13.914;2023-04-01T13:11:38;0.60;;;0.60;;
18677;SDS011;9469;51.114;13.914;2023-04-01T13:17:00;1.77;;;0.67;;
18677;SDS011;9469;51.114;13.914;2023-04-01T13:22:18;2.27;;;0.63;;
18677;SDS011;9469;51.114;13.914;2023-04-01T13:27:30;0.87;;;0.80;;
18677;SDS011;9469;51.114;13.914;2023-04-01T13:32:43;1.37;;;0.70;;
18677;SDS011;9469;51.114;13.914;2023-04-01T13:38:02;0.70;;;0.57;;
18677;SDS011;9469;51.114;13.914;2023-04-01T13:43:39;0.63;;;0.50;;
18677;SDS011;9469;51.114;13.914;2023-04-01T13:49:02;0.93;;;0.70;;
18677;SDS011;9469;51.114;13.914;2023-04-01T14:11:16;0.77;;;0.70;;
18677;SDS011;9469;51.114;13.914;2023-04-01T14:22:06;0.70;;;0.70;;
18677;SDS011;9469;51.114;13.914;2023-04-01T14:27:31;2.83;;;1.17;;
18677;SDS011;9469;51.114;13.914;2023-04-01T14:32:48;1.10;;;0.60;;
18677;SDS011;9469;51.114;13.914;2023-04-01T14:38:06;1.03;;;0.93;;
18677;SDS011;9469;51.114;13.914;2023-04-01T14:43:35;1.00;;;0.70;;
18677;SDS011;9469;51.114;13.914;2023-04-01T14:48:53;0.80;;;0.70;;
18677;SDS011;9469;51.114;13.914;2023-04-01T14:54:09;1.00;;;0.83;;
18677;SDS011;9469;51.114;13.914;2023-04-01T14:59:27;3.00;;;1.37;;
18677;SDS011;9469;51.114;13.914;2023-04-01T15:04:39;1.07;;;0.90;;
18677;SDS011;9469;51.114;13.914;2023-04-01T15:09:59;1.40;;;0.77;;
18677;SDS011;9469;51.114;13.914;2023-04-01T15:15:23;0.60;;;0.60;;
18677;SDS011;9469;51.114;13.914;2023-04-01T15:20:45;0.97;;;0.80;;
18677;SDS011;9469;51.114;13.914;2023-04-01T15:26:12;1.27;;;1.00;;
18677;SDS011;9469;51.114;13.914;2023-04-01T15:31:26;2.53;;;0.77;;
18677;SDS011;9469;51.114;13.914;2023-04-01T15:36:38;1.00;;;0.83;;
18677;SDS011;9469;51.114;13.914;2023-04-01T15:41:55;1.90;;;0.80;;
18677;SDS011;9469;51.114;13.914;2023-04-01T15:47:29;1.70;;;1.20;;
18677;SDS011;9469;51.114;13.914;2023-04-01T15:52:38;2.87;;;1.03;;
18677;SDS011;9469;51.114;13.914;2023-04-01T15:57:56;1.90;;;1.73;;
18677;SDS011;9469;51.114;13.914;2023-04-01T16:03:30;2.33;;;2.13;;
18677;SDS011;9469;51.114;13.914;2023-04-01T16:14:29;1.70;;;0.70;;
18677;SDS011;9469;51.114;13.914;2023-04-01T16:19:51;1.60;;;1.30;;
18677;SDS011;9469;51.114;13.914;2023-04-01T16:25:00;2.50;;;1.57;;
18677;SDS011;9469;51.114;13.914;2023-04-01T16:30:32;1.97;;;0.93;;
18677;SDS011;9469;51.114;13.914;2023-04-01T16:35:43;13.37;;;8.60;;
18677;SDS011;9469;51.114;13.914;2023-04-01T16:41:00;6.93;;;4.40;;
18677;SDS011;9469;51.114;13.914;2023-04-01T16:51:44;12.50;;;8.77;;
18677;SDS011;9469;51.114;13.914;2023-04-01T16:56:54;4.93;;;3.03;;
18677;SDS011;9469;51.114;13.914;2023-04-01T17:02:07;3.80;;;3.03;;
18677;SDS011;9469;51.114;13.914;2023-04-01T17:07:21;2.27;;;1.60;;
18677;SDS011;9469;51.114;13.914;2023-04-01T17:12:34;3.03;;;1.90;;
18677;SDS011;9469;51.114;13.914;2023-04-01T17:17:53;5.13;;;3.73;;
18677;SDS011;9469;51.114;13.914;2023-04-01T17:23:23;4.17;;;2.57;;
18677;SDS011;9469;51.114;13.914;2023-04-01T17:28:37;1.47;;;1.20;;
18677;SDS011;9469;51.114;13.914;2023-04-01T17:33:57;1.20;;;1.10;;
18677;SDS011;9469;51.114;13.914;2023-04-01T17:39:26;1.97;;;1.33;;
18677;SDS011;9469;51.114;13.914;2023-04-01T17:44:45;3.17;;;2.23;;
18677;SDS011;9469;51.114;13.914;2023-04-01T17:50:07;2.80;;;1.70;;
18677;SDS011;9469;51.114;13.914;2023-04-01T17:55:27;2.33;;;2.13;;
18677;SDS011;9469;51.114;13.914;2023-04-01T18:00:50;3.40;;;2.27;;
18677;SDS011;9469;51.114;13.914;2023-04-01T18:06:14;2.80;;;2.40;;
18677;SDS011;9469;51.114;13.914;2023-04-01T18:11:26;4.07;;;3.30;;
18677;SDS011;9469;51.114;13.914;2023-04-01T18:16:47;4.13;;;3.30;;
18677;SDS011;9469;51.114;13.914;2023-04-01T18:22:08;5.10;;;4.13;;
18677;SDS011;9469;51.114;13.914;2023-04-01T18:27:24;4.87;;;3.10;;
18677;SDS011;9469;51.114;13.914;2023-04-01T18:32:37;3.93;;;3.07;;
18677;SDS011;9469;51.114;13.914;2023-04-01T18:37:54;3.50;;;2.37;;
18677;SDS011;9469;51.114;13.914;2023-04-01T18:43:09;4.10;;;2.20;;
18677;SDS011;9469;51.114;13.914;2023-04-01T18:48:32;4.50;;;3.37;;
18677;SDS011;9469;51.114;13.914;2023-04-01T18:53:48;4.43;;;3.10;;
18677;SDS011;9469;51.114;13.914;2023-04-01T18:59:04;3.70;;;3.10;;
18677;SDS011;9469;51.114;13.914;2023-04-01T19:04:23;10.00;;;5.33;;
18677;SDS011;9469;51.114;13.914;2023-04-01T19:09:45;5.80;;;3.17;;
18677;SDS011;9469;51.114;13.914;2023-04-01T19:14:53;6.40;;;3.33;;
18677;SDS011;9469;51.114;13.914;2023-04-01T19:20:09;4.90;;;3.40;;
18677;SDS011;9469;51.114;13.914;2023-04-01T19:25:26;3.90;;;3.37;;
18677;SDS011;9469;51.114;13.914;2023-04-01T19:30:43;6.83;;;4.67;;
18677;SDS011;9469;51.114;13.914;2023-04-01T19:35:58;6.37;;;3.57;;
18677;SDS011;9469;51.114;13.914;2023-04-01T19:41:20;5.53;;;3.60;;
18677;SDS011;9469;51.114;13.914;2023-04-01T19:46:37;3.67;;;3.13;;
18677;SDS011;9469;51.114;13.914;2023-04-01T19:51:52;4.53;;;3.50;;
18677;SDS011;9469;51.114;13.914;2023-04-01T19:57:13;4.90;;;4.07;;
18677;SDS011;9469;51.114;13.914;2023-04-01T20:02:31;4.27;;;3.80;;
18677;SDS011;9469;51.114;13.914;2023-04-01T20:07:43;6.23;;;4.60;;
18677;SDS011;9469;51.114;13.914;2023-04-01T20:12:57;5.67;;;4.90;;
18677;SDS011;9469;51.114;13.914;2023-04-01T20:18:13;5.70;;;4.40;;
18677;SDS011;9469;51.114;13.914;2023-04-01T20:23:30;4.37;;;3.87;;
18677;SDS011;9469;51.114;13.914;2023-04-01T20:28:47;4.53;;;3.60;;
18677;SDS011;9469;51.114;13.914;2023-04-01T20:34:18;2.77;;;2.57;;
18677;SDS011;9469;51.114;13.914;2023-04-01T20:39:36;3.47;;;3.17;;
18677;SDS011;9469;51.114;13.914;2023-04-01T20:45:01;4.03;;;3.50;;
18677;SDS011;9469;51.114;13.914;2023-04-01T20:50:24;3.87;;;3.07;;
18677;SDS011;9469;51.114;13.914;2023-04-01T21:01:29;4.20;;;3.57;;
18677;SDS011;9469;51.114;13.914;2023-04-01T21:06:45;4.27;;;3.87;;
18677;SDS011;9469;51.114;13.914;2023-04-01T21:12:06;4.00;;;3.70;;
18677;SDS011;9469;51.114;13.914;2023-04-01T21:17:27;3.90;;;3.60;;
18677;SDS011;9469;51.114;13.914;2023-04-01T21:22:53;4.10;;;3.67;;
18677;SDS011;9469;51.114;13.914;2023-04-01T21:39:20;2.00;;;1.80;;
18677;SDS011;9469;51.114;13.914;2023-04-01T21:44:46;2.63;;;2.43;;
18677;SDS011;9469;51.114;13.914;2023-04-01T21:50:18;4.93;;;2.37;;
18677;SDS011;9469;51.114;13.914;2023-04-01T21:55:44;4.93;;;3.20;;
18677;SDS011;9469;51.114;13.914;2023-04-01T22:01:24;4.27;;;3.70;;
18677;SDS011;9469;51.114;13.914;2023-04-01T22:06:48;4.03;;;3.27;;
18677;SDS011;9469;51.114;13.914;2023-04-01T22:11:58;3.67;;;2.97;;
18677;SDS011;9469;51.114;13.914;2023-04-01T22:17:18;4.33;;;3.93;;
18677;SDS011;9469;51.114;13.914;2023-04-01T22:22:39;4.90;;;4.07;;
18677;SDS011;9469;51.114;13.914;2023-04-01T22:27:58;4.83;;;4.10;;
18677;SDS011;9469;51.114;13.914;2023-04-01T22:33:10;5.43;;;4.47;;
18677;SDS011;9469;51.114;13.914;2023-04-01T22:38:29;7.47;;;5.23;;
18677;SDS011;9469;51.114;13.914;2023-04-01T22:43:49;6.00;;;4.63;;
18677;SDS011;9469;51.114;13.914;2023-04-01T22:48:57;5.90;;;4.93;;
18677;SDS011;9469;51.114;13.914;2023-04-01T22:54:17;7.07;;;5.07;;
18677;SDS011;9469;51.114;13.914;2023-04-01T22:59:29;6.30;;;4.97;;
18677;SDS011;9469;51.114;13.914;2023-04-01T23:04:40;4.27;;;3.87;;
18677;SDS011;9469;51.114;13.914;2023-04-01T23:09:52;4.47;;;4.07;;
18677;SDS011;9469;51.114;13.914;2023-04-01T23:15:05;6.77;;;4.80;;
18677;SDS011;9469;51.114;13.914;2023-04-01T23:20:20;4.47;;;3.83;;
18677;SDS011;9469;51.114;13.914;2023-04-01T23:25:39;5.37;;;4.87;;
18677;SDS011;9469;51.114;13.914;2023-04-01T23:30:55;5.50;;;4.67;;
18677;SDS011;9469;51.114;13.914;2023-04-01T23:36:00;6.57;;;5.10;;
18677;SDS011;9469;51.114;13.914;2023-04-01T23:41:19;5.60;;;5.10;;
18677;SDS011;9469;51.114;13.914;2023-04-01T23:46:28;4.60;;;4.20;;
18677;SDS011;9469;51.114;13.914;2023-04-01T23:51:37;5.30;;;4.77;;
18677;SDS011;9469;51.114;13.914;2023-04-01T23:56:47;5.93;;;5.33;;
